Time;durP1;ratioP1;P1;durP2;ratioP2;P2;SDS_P1;SDS_P2;PMS_P1;PMS_P2;Temp;Humidity;BMP_temperature;BMP_pressure;BME280_temperature;BME280_humidity;BME280_pressure;Samples;Min_cycle;Max_cycle;Signal;HPM_P1;HPM_P2
2023/01/27 00:00:05;;;;;;;40.47;18.58;;;;;;;-2.15;95.72;92489.00;5069741;28;20032;-50
2023/01/27 00:02:31;;;;;;;25.38;12.27;;;;;;;-2.07;96.55;92482.63;5069513;28;20040;-51
2023/01/27 00:04:57;;;;;;;31.98;15.55;;;;;;;-2.03;97.37;92510.16;5069957;28;20020;-51
2023/01/27 00:07:22;;;;;;;13.20;8.05;;;;;;;-1.95;97.54;92529.34;5069599;28;20024;-51
2023/01/27 00:09:48;;;;;;;8.77;4.88;;;;;;;-1.97;97.47;92534.53;5069604;28;20039;-51
2023/01/27 00:15:09;;;;;;;5.68;3.58;;;;;;;-2.05;96.97;92531.53;5067960;28;20059;-51
2023/01/27 00:17:35;;;;;;;5.88;4.03;;;;;;;-1.95;95.26;92532.78;5069373;28;20032;-52
2023/01/27 00:20:00;;;;;;;11.13;6.22;;;;;;;-2.00;93.79;92530.09;5069187;28;20036;-50
2023/01/27 00:25:10;;;;;;;8.50;4.18;;;;;;;-2.13;91.66;92513.59;5069773;28;20035;-51
2023/01/27 00:27:36;;;;;;;7.22;4.78;;;;;;;-2.16;90.90;92501.03;5069655;28;20240;-51
2023/01/27 00:30:05;;;;;;;10.93;5.07;;;;;;;-2.16;91.41;92488.28;5068981;28;20044;-51
2023/01/27 00:35:15;;;;;;;7.82;4.75;;;;;;;-2.27;91.19;92460.50;5089277;28;19923;-51
2023/01/27 00:37:41;;;;;;;13.20;7.10;;;;;;;-2.15;91.81;92459.28;5089555;28;20126;-52
2023/01/27 00:40:08;;;;;;;13.63;6.90;;;;;;;-2.14;92.78;92474.28;5088988;28;20491;-51
2023/01/27 00:42:34;;;;;;;12.80;6.18;;;;;;;-2.09;93.42;92482.38;5089135;28;20035;-54
2023/01/27 00:47:43;;;;;;;7.55;5.10;;;;;;;-1.96;94.21;92481.88;5089643;28;20097;-51
2023/01/27 00:50:09;;;;;;;11.50;5.13;;;;;;;-1.92;93.55;92491.22;5088732;28;20020;-51
2023/01/27 00:52:34;;;;;;;6.78;4.60;;;;;;;-1.99;93.82;92489.00;5089002;28;20031;-52
2023/01/27 00:54:59;;;;;;;5.38;3.85;;;;;;;-2.06;94.30;92497.63;5089170;28;20036;-51
2023/01/27 00:57:25;;;;;;;5.88;2.80;;;;;;;-2.13;94.04;92519.00;5088254;28;20028;-51
2023/01/27 00:59:50;;;;;;;4.32;2.90;;;;;;;-2.11;92.42;92530.06;5088875;28;20481;-51
2023/01/27 01:02:16;;;;;;;10.65;5.53;;;;;;;-2.11;91.53;92514.59;5089127;28;20020;-52
2023/01/27 01:04:41;;;;;;;5.82;3.58;;;;;;;-2.05;91.37;92525.41;5078286;28;20021;-50
2023/01/27 01:07:07;;;;;;;4.28;2.75;;;;;;;-2.12;90.37;92520.50;5069221;28;20480;-51
2023/01/27 01:09:32;;;;;;;3.53;3.05;;;;;;;-2.15;90.92;92535.72;5068894;28;20086;-50
2023/01/27 01:11:57;;;;;;;6.85;3.80;;;;;;;-2.09;91.06;92524.91;5068780;28;20051;-53
2023/01/27 01:14:23;;;;;;;6.82;4.28;;;;;;;-2.12;91.44;92523.19;5068511;28;20036;-54
2023/01/27 01:16:48;;;;;;;5.65;3.47;;;;;;;-2.14;90.98;92517.53;5069071;28;20484;-52
2023/01/27 01:19:14;;;;;;;3.40;2.83;;;;;;;-2.14;91.70;92520.97;5068865;28;20488;-53
2023/01/27 01:21:39;;;;;;;4.88;2.60;;;;;;;-2.10;92.29;92505.22;5068591;28;20032;-52
2023/01/27 01:24:05;;;;;;;4.07;3.15;;;;;;;-2.04;92.78;92503.28;5068415;28;20425;-52
2023/01/27 01:26:30;;;;;;;5.57;3.33;;;;;;;-2.05;93.81;92498.34;5068685;28;20028;-51
2023/01/27 01:28:56;;;;;;;3.75;3.25;;;;;;;-2.10;95.30;92489.00;5068770;28;20036;-52
2023/01/27 01:31:21;;;;;;;6.10;4.30;;;;;;;-2.01;96.00;92486.06;5068435;28;20480;-50
2023/01/27 01:33:47;;;;;;;6.15;4.15;;;;;;;-2.02;96.08;92462.97;5082705;28;20032;-52
2023/01/27 01:36:15;;;;;;;6.10;4.70;;;;;;;-1.89;96.72;92479.44;5088533;28;20086;-51
2023/01/27 01:38:41;;;;;;;6.43;4.55;;;;;;;-1.92;97.51;92487.78;5088915;28;20039;-51
2023/01/27 01:41:10;;;;;;;7.97;4.43;;;;;;;-1.96;98.01;92498.84;5088392;28;20032;-51
2023/01/27 01:43:35;;;;;;;;;;;;;;;-1.93;98.36;92492.47;5089325;28;20070;-52
2023/01/27 01:46:02;;;;;;;9.68;5.80;;;;;;;-2.05;97.51;92488.28;5088601;28;19912;-53
2023/01/27 01:48:36;;;;;;;9.98;5.30;;;;;;;-1.96;97.62;92485.34;5088731;28;20024;-51
2023/01/27 01:51:21;;;;;;;9.00;5.38;;;;;;;-1.92;97.62;92482.38;5087433;28;20087;-53
2023/01/27 01:53:56;;;;;;;8.57;4.75;;;;;;;-1.93;98.36;92472.81;5083777;28;20024;-50
2023/01/27 01:56:25;;;;;;;8.40;4.60;;;;;;;-1.92;97.92;92463.44;5068575;28;20066;-51
2023/01/27 01:58:50;;;;;;;;;;;;;;;-1.99;98.18;92451.16;5068021;28;20040;-50
2023/01/27 02:01:16;;;;;;;6.20;3.63;;;;;;;-1.98;97.99;92451.88;5068938;28;19977;-52
2023/01/27 02:03:45;;;;;;;7.95;4.38;;;;;;;-1.95;97.42;92451.63;5071871;28;20769;-51
2023/01/27 02:06:12;;;;;;;5.32;3.33;;;;;;;-2.14;96.58;92439.84;5072003;28;20044;-51
2023/01/27 02:08:40;;;;;;;5.38;3.10;;;;;;;-2.11;96.57;92457.81;5072364;28;20048;-51
2023/01/27 02:11:07;;;;;;;5.33;3.27;;;;;;;-2.11;96.07;92441.56;5070445;28;20214;-53
2023/01/27 02:13:32;;;;;;;4.63;3.50;;;;;;;-2.15;96.04;92410.59;5071468;28;20478;-52
2023/01/27 02:15:58;;;;;;;6.90;3.97;;;;;;;-2.03;95.58;92420.91;5071406;28;20039;-51
2023/01/27 02:18:25;;;;;;;7.78;4.07;;;;;;;-2.09;95.53;92444.53;5072040;28;20035;-52
2023/01/27 02:20:53;;;;;;;7.70;3.90;;;;;;;-2.12;96.16;92442.06;5072061;28;20404;-52
2023/01/27 02:23:52;;;;;;;10.82;4.53;;;;;;;-2.05;95.16;92436.16;5071780;28;20032;-52
2023/01/27 02:26:24;;;;;;;5.85;3.83;;;;;;;-2.16;95.27;92438.84;5071604;28;20035;-51
2023/01/27 02:29:16;;;;;;;7.50;5.32;;;;;;;-2.20;95.37;92436.41;5070618;28;20028;-50
2023/01/27 02:31:42;;;;;;;3.70;3.15;;;;;;;-2.22;95.31;92422.66;5070100;28;20039;-50
2023/01/27 02:34:14;;;;;;;12.05;5.25;;;;;;;-2.10;95.17;92417.97;5088894;28;20056;-52
2023/01/27 02:36:47;;;;;;;13.70;6.53;;;;;;;-2.22;93.04;92419.19;5090454;28;20028;-51
2023/01/27 02:39:14;;;;;;;8.60;5.38;;;;;;;-2.20;93.69;92419.44;5091527;28;20052;-51
2023/01/27 02:41:42;;;;;;;2.17;1.88;;;;;;;-2.26;93.57;92416.75;5090764;28;20410;-50
2023/01/27 02:44:08;;;;;;;3.15;2.28;;;;;;;-2.25;93.98;92429.03;5090114;28;20024;-50
2023/01/27 02:46:35;;;;;;;4.32;2.88;;;;;;;-2.26;95.29;92443.78;5091340;28;20706;-51
2023/01/27 02:49:00;;;;;;;6.38;3.53;;;;;;;-2.21;94.94;92445.03;5091312;28;20028;-51
2023/01/27 02:51:26;;;;;;;3.55;1.90;;;;;;;-2.23;94.01;92448.19;5076618;28;20111;-51
2023/01/27 02:53:51;;;;;;;3.17;2.85;;;;;;;-2.14;93.61;92447.25;5070977;28;20474;-51
2023/01/27 02:56:17;;;;;;;2.70;2.45;;;;;;;-2.21;93.89;92445.75;5070820;28;20028;-51
2023/01/27 02:58:42;;;;;;;3.97;3.10;;;;;;;-2.13;94.03;92433.22;5083019;28;20047;-50
2023/01/27 03:01:08;;;;;;;5.55;3.80;;;;;;;-2.04;94.22;92426.81;5091518;28;20066;-51
2023/01/27 03:03:33;;;;;;;11.07;5.57;;;;;;;-2.14;94.12;92420.91;5090095;28;20024;-52
2023/01/27 03:05:59;;;;;;;6.63;3.75;;;;;;;-2.08;93.65;92413.53;5070571;28;20136;-50
2023/01/27 03:08:24;;;;;;;5.97;3.38;;;;;;;-2.01;93.21;92413.03;5070786;28;20031;-51
2023/01/27 03:10:52;;;;;;;3.25;2.50;;;;;;;-1.90;92.47;92401.47;5070668;28;20035;-50
2023/01/27 03:13:24;;;;;;;3.83;2.58;;;;;;;-1.98;93.05;92390.44;5070802;28;20048;-51
2023/01/27 03:18:33;;;;;;;3.53;3.15;;;;;;;-1.93;94.05;92372.72;5070910;28;20150;-51
2023/01/27 03:21:01;;;;;;;5.13;3.30;;;;;;;-2.00;94.94;92373.22;5070507;28;20025;-51
2023/01/27 03:23:26;;;;;;;9.32;4.65;;;;;;;-1.98;95.34;92373.47;5070650;28;20063;-53
2023/01/27 03:25:52;;;;;;;7.50;3.92;;;;;;;-2.02;94.84;92373.72;5070477;28;20060;-50
2023/01/27 03:28:17;;;;;;;9.18;5.13;;;;;;;-1.95;94.89;92356.97;5070540;28;20590;-50
2023/01/27 03:30:43;;;;;;;8.82;4.20;;;;;;;-1.82;95.05;92354.47;5070406;28;20016;-52
2023/01/27 03:33:08;;;;;;;8.60;4.97;;;;;;;-1.90;94.61;92352.78;5070642;28;20110;-51
2023/01/27 03:35:37;;;;;;;9.43;4.65;;;;;;;-1.87;93.88;92357.97;5070072;28;20404;-51
2023/01/27 03:46:23;;;;;;;3.30;3.00;;;;;;;-1.77;92.70;92359.16;5086371;28;20427;-51
2023/01/27 03:48:53;;;;;;;4.93;3.58;;;;;;;-1.82;91.84;92373.41;5070125;28;20025;-52
2023/01/27 03:51:21;;;;;;;2.65;2.15;;;;;;;-2.04;92.73;92370.78;5070275;28;20035;-51
2023/01/27 03:53:46;;;;;;;3.97;2.33;;;;;;;-1.88;92.85;92370.00;5069686;28;20040;-52
2023/01/27 03:56:13;;;;;;;2.78;2.58;;;;;;;-1.92;92.44;92395.81;5069993;28;20036;-51
2023/01/27 03:58:38;;;;;;;2.72;2.22;;;;;;;-1.98;93.07;92408.63;5081203;28;20488;-51
2023/01/27 04:01:07;;;;;;;2.85;2.35;;;;;;;-2.04;93.19;92413.31;5090186;28;20088;-51
2023/01/27 04:09:11;;;;;;;2.28;2.00;;;;;;;-1.93;92.99;92399.78;5069777;28;20063;-51
2023/01/27 04:11:55;;;;;;;2.20;1.92;;;;;;;-1.92;92.55;92410.09;5068182;28;20032;-53
2023/01/27 04:14:26;;;;;;;2.08;1.90;;;;;;;-1.92;92.68;92418.19;5069203;28;20048;-51
2023/01/27 04:16:52;;;;;;;2.92;2.13;;;;;;;-1.91;92.38;92408.88;5069278;28;20083;-51
2023/01/27 04:19:18;;;;;;;1.95;1.85;;;;;;;-1.93;91.49;92411.34;5069547;28;20039;-51
2023/01/27 04:21:44;;;;;;;2.28;2.08;;;;;;;-1.93;91.82;92419.44;5069593;28;20036;-51
2023/01/27 04:24:15;;;;;;;3.75;2.40;;;;;;;-1.94;93.47;92417.97;5068695;28;20554;-51
2023/01/27 04:26:44;;;;;;;8.05;4.43;;;;;;;-1.90;94.76;92418.44;5069406;28;20085;-51
2023/01/27 04:29:12;;;;;;;6.57;4.65;;;;;;;-1.83;94.77;92423.34;5069738;28;20419;-51
2023/01/27 04:31:37;;;;;;;9.57;4.07;;;;;;;-1.79;95.45;92426.53;5068785;28;20033;-52
2023/01/27 04:34:02;;;;;;;7.63;3.88;;;;;;;-1.73;95.60;92432.69;5084709;28;20039;-51
2023/01/27 04:36:28;;;;;;;5.70;4.10;;;;;;;-1.76;95.84;92420.16;5089513;28;20028;-51
2023/01/27 04:38:53;;;;;;;5.57;3.25;;;;;;;-1.74;95.65;92436.63;5089825;28;20031;-51
2023/01/27 04:41:19;;;;;;;9.73;5.97;;;;;;;-1.85;96.01;92436.66;5089162;28;20024;-51
2023/01/27 04:43:44;;;;;;;7.03;4.45;;;;;;;-1.76;96.10;92438.34;5076008;28;20097;-51
2023/01/27 04:46:09;;;;;;;5.68;4.18;;;;;;;-1.67;95.71;92440.81;5069057;28;20275;-50
2023/01/27 04:48:35;;;;;;;5.25;4.10;;;;;;;-1.75;95.33;92420.88;5069139;28;20028;-51
2023/01/27 04:51:00;;;;;;;5.55;3.78;;;;;;;-1.73;95.18;92427.28;5069212;28;20047;-51
2023/01/27 04:53:26;;;;;;;6.55;4.35;;;;;;;-1.86;95.95;92431.72;5068732;28;20021;-53
2023/01/27 04:55:51;;;;;;;9.55;6.47;;;;;;;-1.84;96.29;92429.28;5068838;28;20020;-51
2023/01/27 04:58:17;;;;;;;10.13;4.60;;;;;;;-1.80;96.15;92410.81;5077492;28;20028;-51
2023/01/27 05:00:43;;;;;;;10.15;4.80;;;;;;;-1.81;95.90;92428.25;5089287;28;20040;-52
2023/01/27 05:03:10;;;;;;;13.55;4.90;;;;;;;-1.79;95.53;92431.22;5089105;28;20088;-51
2023/01/27 05:05:36;;;;;;;6.05;4.10;;;;;;;-1.81;95.58;92434.41;5070818;28;20052;-50
2023/01/27 05:08:07;;;;;;;8.68;4.78;;;;;;;-1.86;95.94;92429.75;5069047;28;20115;-51
2023/01/27 05:10:32;;;;;;;13.95;8.05;;;;;;;-1.82;95.41;92429.50;5068636;28;20058;-52
2023/01/27 05:12:58;;;;;;;10.88;6.20;;;;;;;-1.78;95.15;92419.91;5068503;28;20032;-52
2023/01/27 05:15:24;;;;;;;4.10;3.28;;;;;;;-1.73;94.47;92421.84;5068508;28;20091;-51
2023/01/27 05:17:49;;;;;;;9.27;6.07;;;;;;;-1.75;93.91;92424.31;5069017;28;20033;-53
2023/01/27 05:20:15;;;;;;;11.30;5.88;;;;;;;-1.70;93.52;92415.47;5068542;28;20055;-53
2023/01/27 05:22:41;;;;;;;9.23;4.38;;;;;;;-1.89;93.46;92417.22;5068748;28;20091;-51
2023/01/27 05:25:07;;;;;;;5.97;4.07;;;;;;;-1.78;93.46;92417.22;5068929;28;20016;-51
2023/01/27 05:27:33;;;;;;;6.45;3.80;;;;;;;-1.84;93.51;92413.03;5068729;28;20032;-50
2023/01/27 05:29:58;;;;;;;9.10;4.55;;;;;;;-1.87;94.11;92409.34;5068595;28;20024;-51
2023/01/27 05:32:23;;;;;;;3.60;2.80;;;;;;;-1.86;94.34;92400.00;5068263;28;20089;-50
2023/01/27 05:34:49;;;;;;;3.88;3.45;;;;;;;-1.90;94.46;92396.81;5068390;28;20088;-52
2023/01/27 05:37:14;;;;;;;2.85;2.08;;;;;;;-1.87;94.34;92398.53;5072152;28;20040;-51
2023/01/27 05:39:40;;;;;;;3.78;2.78;;;;;;;-1.82;94.46;92399.75;5072302;28;20035;-51
2023/01/27 05:42:05;;;;;;;4.90;3.60;;;;;;;-1.81;94.70;92399.25;5072305;28;20028;-51
2023/01/27 05:44:30;;;;;;;5.85;4.85;;;;;;;-1.75;94.73;92383.75;5072252;28;20024;-51
2023/01/27 05:46:56;;;;;;;5.38;4.50;;;;;;;-1.71;94.81;92378.09;5072617;28;20040;-52
2023/01/27 05:49:21;;;;;;;11.50;6.20;;;;;;;-1.72;95.98;92385.47;5072583;28;20090;-52
2023/01/27 05:51:47;;;;;;;20.95;7.53;;;;;;;-1.71;96.86;92384.22;5072073;28;20500;-51
2023/01/27 05:54:12;;;;;;;4.78;3.70;;;;;;;-1.67;97.18;92382.00;5072407;28;20033;-50
2023/01/27 05:56:39;;;;;;;4.88;3.55;;;;;;;-1.66;95.81;92396.25;5072509;28;20630;-52
2023/01/27 05:59:05;;;;;;;3.78;3.13;;;;;;;-1.63;95.21;92396.03;5072187;28;20044;-51
2023/01/27 06:01:31;;;;;;;7.78;3.15;;;;;;;-1.68;94.60;92404.13;5072245;28;20526;-51
2023/01/27 06:03:57;;;;;;;10.32;4.65;;;;;;;-1.72;94.74;92404.41;5072017;28;20035;-52
2023/01/27 06:06:24;;;;;;;5.45;3.05;;;;;;;-1.74;94.58;92411.53;5071841;28;20029;-51
2023/01/27 06:08:50;;;;;;;5.32;2.95;;;;;;;-1.64;93.88;92410.78;5072174;28;20101;-51
2023/01/27 06:11:18;;;;;;;8.43;3.35;;;;;;;-1.60;94.36;92416.66;5071858;28;20033;-52
2023/01/27 06:13:44;;;;;;;3.47;3.17;;;;;;;-1.64;94.64;92435.13;5071714;28;20174;-51
2023/01/27 06:16:12;;;;;;;4.07;3.05;;;;;;;-1.63;94.12;92427.75;5072255;28;20062;-51
2023/01/27 06:18:38;;;;;;;10.77;4.13;;;;;;;-1.65;94.23;92427.50;5071889;28;20024;-51
2023/01/27 06:21:04;;;;;;;20.15;10.93;;;;;;;-1.58;93.05;92443.97;5071630;28;20031;-51
2023/01/27 06:23:30;;;;;;;19.92;10.20;;;;;;;-1.57;93.32;92436.59;5071705;28;20028;-53
2023/01/27 06:26:00;;;;;;;21.92;12.85;;;;;;;-1.69;93.82;92425.03;5071697;28;20029;-53
2023/01/27 06:28:25;;;;;;;9.05;4.78;;;;;;;-1.54;93.15;92430.19;5071820;28;20025;-51
2023/01/27 06:30:51;;;;;;;5.38;3.03;;;;;;;-1.52;92.89;92430.44;5071599;28;20519;-51
2023/01/27 06:33:17;;;;;;;5.72;3.25;;;;;;;-1.49;92.84;92436.84;5081714;28;20741;-51
2023/01/27 06:35:43;;;;;;;4.30;3.75;;;;;;;-1.45;92.89;92432.63;5082636;28;20028;-51
2023/01/27 06:38:11;;;;;;;3.22;2.92;;;;;;;-1.41;92.86;92432.38;5071736;28;20032;-51
2023/01/27 06:40:37;;;;;;;5.28;3.55;;;;;;;-1.32;92.82;92430.13;5070283;28;20105;-51
2023/01/27 06:43:02;;;;;;;8.40;3.75;;;;;;;-1.35;92.85;92430.38;5071314;28;20033;-51
2023/01/27 06:45:28;;;;;;;8.65;3.90;;;;;;;-1.24;93.45;92425.69;5071566;28;20025;-52
2023/01/27 06:47:55;;;;;;;5.25;3.60;;;;;;;-1.34;92.77;92432.59;5070487;28;20064;-50
2023/01/27 06:50:21;;;;;;;5.07;3.83;;;;;;;-1.23;92.96;92443.38;5071212;28;20416;-51
2023/01/27 06:52:46;;;;;;;3.90;3.30;;;;;;;-1.21;92.79;92442.91;5071390;28;20033;-50
2023/01/27 06:55:12;;;;;;;7.68;4.22;;;;;;;-1.18;93.54;92458.88;5071300;28;20730;-52
2023/01/27 06:57:37;;;;;;;5.65;3.95;;;;;;;-1.21;93.27;92459.16;5073818;28;20035;-52
2023/01/27 07:00:03;;;;;;;5.00;3.47;;;;;;;-1.14;92.55;92461.31;5091286;28;20090;-50
2023/01/27 07:02:29;;;;;;;6.10;3.53;;;;;;;-1.18;92.04;92466.25;5091346;28;20040;-50
2023/01/27 07:04:54;;;;;;;5.47;2.63;;;;;;;-1.15;91.88;92468.00;5078880;28;20028;-50
2023/01/27 07:07:20;;;;;;;4.80;2.45;;;;;;;-1.08;91.02;92470.16;5070999;28;20400;-51
2023/01/27 07:09:45;;;;;;;17.13;9.52;;;;;;;-1.10;89.98;92457.13;5071006;28;20101;-50
2023/01/27 07:12:10;;;;;;;67.28;30.25;;;;;;;-1.14;90.65;92455.91;5071004;28;20036;-51
2023/01/27 07:14:36;;;;;;;63.97;26.05;;;;;;;-1.09;90.30;92444.31;5070530;28;20482;-50
2023/01/27 07:17:01;;;;;;;14.82;6.40;;;;;;;-1.00;89.15;92441.34;5071085;28;20495;-50
2023/01/27 07:19:27;;;;;;;5.20;3.45;;;;;;;-0.99;89.64;92438.13;5070541;28;20021;-50
2023/01/27 07:21:52;;;;;;;6.20;4.03;;;;;;;-0.94;89.24;92445.50;5070409;28;20036;-51
2023/01/27 07:24:18;;;;;;;5.03;2.95;;;;;;;-0.91;89.16;92444.47;5070562;28;20029;-50
2023/01/27 07:26:46;;;;;;;2.95;2.63;;;;;;;-0.98;89.87;92436.91;5070682;28;20058;-50
2023/01/27 07:29:12;;;;;;;6.83;2.90;;;;;;;-0.78;88.64;92447.38;5070338;28;20036;-51
2023/01/27 07:31:37;;;;;;;6.88;3.90;;;;;;;-0.89;88.51;92450.13;5070053;28;20504;-52
2023/01/27 07:34:03;;;;;;;8.88;5.35;;;;;;;-0.92;89.29;92451.16;5086730;28;20028;-50
2023/01/27 07:36:28;;;;;;;7.50;4.15;;;;;;;-0.91;89.02;92447.19;5090824;28;20034;-51
2023/01/27 07:38:54;;;;;;;5.97;4.50;;;;;;;-0.77;88.90;92445.41;5090635;28;20024;-51
2023/01/27 07:41:21;;;;;;;5.07;3.10;;;;;;;-0.74;88.59;92443.69;5090610;28;20459;-51
2023/01/27 07:43:47;;;;;;;7.82;3.85;;;;;;;-0.60;87.47;92442.59;5090375;28;20020;-51
2023/01/27 07:46:13;;;;;;;6.95;3.72;;;;;;;-0.64;87.80;92436.72;5090525;28;20032;-50
2023/01/27 07:48:38;;;;;;;5.97;3.63;;;;;;;-0.65;89.03;92429.84;5090140;28;20397;-52
2023/01/27 07:51:04;;;;;;;5.75;3.03;;;;;;;-0.56;88.35;92435.69;5090302;28;20043;-50
2023/01/27 07:53:29;;;;;;;4.07;3.03;;;;;;;-0.47;88.33;92446.22;5090052;28;20035;-50
2023/01/27 07:55:58;;;;;;;5.35;3.55;;;;;;;-0.38;87.56;92451.34;5089933;28;20032;-52
2023/01/27 07:58:23;;;;;;;4.82;2.53;;;;;;;-0.27;87.89;92448.56;5080090;28;20135;-50
2023/01/27 08:00:49;;;;;;;6.80;3.58;;;;;;;-0.13;86.62;92442.06;5069992;28;20036;-50
2023/01/27 08:03:22;;;;;;;3.67;3.10;;;;;;;-0.08;86.55;92441.28;5069614;28;20025;-51
2023/01/27 08:05:48;;;;;;;6.03;3.35;;;;;;;0.08;85.15;92442.41;5070049;28;20017;-51
2023/01/27 08:08:13;;;;;;;2.95;1.98;;;;;;;0.08;85.04;92439.69;5069764;28;20032;-50
2023/01/27 08:10:39;;;;;;;8.70;2.72;;;;;;;0.13;85.10;92438.19;5069330;28;20065;-51
2023/01/27 08:13:05;;;;;;;6.60;3.67;;;;;;;-0.16;85.28;92434.19;5069852;28;20036;-49
2023/01/27 08:15:30;;;;;;;9.25;4.38;;;;;;;-0.19;86.05;92446.78;5069310;28;20662;-51
2023/01/27 08:17:56;;;;;;;10.27;6.82;;;;;;;-0.05;85.28;92440.28;5069591;28;20024;-51
2023/01/27 08:20:23;;;;;;;6.57;4.05;;;;;;;0.04;85.67;92443.91;5069839;28;20034;-50
2023/01/27 08:22:49;;;;;;;7.45;3.40;;;;;;;-0.01;85.16;92438.03;5069528;28;20057;-53
2023/01/27 08:25:14;;;;;;;19.45;8.38;;;;;;;0.10;85.48;92450.03;5069542;28;20047;-49
2023/01/27 08:27:40;;;;;;;6.28;3.45;;;;;;;0.14;86.13;92448.50;5069287;28;20032;-52
2023/01/27 08:30:05;;;;;;;7.50;3.95;;;;;;;0.11;86.02;92449.50;5069017;28;20025;-51
2023/01/27 08:32:33;;;;;;;5.57;3.00;;;;;;;0.22;84.64;92449.44;5072793;28;20042;-50
2023/01/27 08:34:58;;;;;;;3.00;2.55;;;;;;;0.29;83.93;92440.72;5089357;28;20490;-51
2023/01/27 08:37:23;;;;;;;3.92;2.03;;;;;;;0.24;84.12;92443.50;5089275;28;20031;-51
2023/01/27 08:39:49;;;;;;;4.30;2.08;;;;;;;0.36;83.90;92442.16;5089610;28;20031;-51
2023/01/27 08:42:14;;;;;;;2.53;2.13;;;;;;;0.55;83.74;92440.25;5089538;28;20477;-51
2023/01/27 08:44:40;;;;;;;2.25;1.65;;;;;;;0.62;84.00;92445.13;5089217;28;20849;-51
2023/01/27 08:47:05;;;;;;;4.18;2.25;;;;;;;0.78;82.93;92442.22;5089572;28;20016;-50
2023/01/27 08:49:31;;;;;;;2.42;1.92;;;;;;;1.17;81.86;92436.34;5089384;28;20031;-50
2023/01/27 08:51:56;;;;;;;15.93;6.13;;;;;;;1.38;80.64;92434.63;5089312;28;20047;-51
2023/01/27 08:54:22;;;;;;;4.28;2.05;;;;;;;1.50;79.82;92433.19;5089097;28;20050;-51
2023/01/27 08:56:47;;;;;;;3.75;2.30;;;;;;;1.74;77.75;92426.19;5088984;28;20035;-50
2023/01/27 08:59:13;;;;;;;3.20;1.83;;;;;;;1.76;77.05;92440.03;5073152;28;20040;-50
2023/01/27 09:01:40;;;;;;;6.55;2.70;;;;;;;1.29;78.35;92437.69;5068969;28;20105;-50
2023/01/27 09:04:06;;;;;;;9.13;4.60;;;;;;;1.22;79.70;92442.97;5068470;28;20083;-50
2023/01/27 09:06:31;;;;;;;8.93;3.35;;;;;;;1.15;79.81;92444.28;5068885;28;20056;-50
2023/01/27 09:09:09;;;;;;;7.80;4.05;;;;;;;1.02;80.53;92436.03;5068758;28;20040;-51
2023/01/27 09:11:37;;;;;;;5.47;3.20;;;;;;;0.92;80.87;92434.91;5068700;28;20028;-50
2023/01/27 09:14:02;;;;;;;3.97;2.28;;;;;;;0.96;80.53;92437.34;5068377;28;20083;-49
2023/01/27 09:16:28;;;;;;;6.18;3.17;;;;;;;1.04;81.04;92424.66;5068637;28;20060;-50
2023/01/27 09:18:53;;;;;;;4.55;2.58;;;;;;;1.08;79.81;92427.81;5068867;28;20024;-50
2023/01/27 09:21:19;;;;;;;3.08;1.95;;;;;;;1.17;79.30;92419.31;5068706;28;20037;-50
2023/01/27 09:23:47;;;;;;;4.75;2.00;;;;;;;1.27;79.05;92415.72;5068420;28;20099;-52
2023/01/27 09:26:13;;;;;;;2.78;1.55;;;;;;;1.51;79.02;92410.22;5068373;28;20028;-50
2023/01/27 09:28:38;;;;;;;2.20;2.00;;;;;;;1.74;78.63;92404.44;5067682;28;20037;-50
2023/01/27 09:31:04;;;;;;;2.03;1.38;;;;;;;1.59;77.51;92409.59;5068329;28;20039;-50
2023/01/27 09:33:29;;;;;;;1.40;1.30;;;;;;;1.64;77.52;92409.53;5080652;28;20495;-50
2023/01/27 09:36:05;;;;;;;5.55;2.40;;;;;;;1.77;77.54;92408.84;5088577;28;20120;-51
2023/01/27 09:38:33;;;;;;;4.47;2.60;;;;;;;1.44;77.74;92410.78;5088490;28;20466;-52
2023/01/27 09:41:28;;;;;;;5.67;3.20;;;;;;;1.48;77.21;92410.50;5088759;28;20032;-51
2023/01/27 09:44:12;;;;;;;59.22;19.38;;;;;;;1.47;77.90;92407.03;5070265;28;20562;-50
2023/01/27 09:46:52;;;;;;;10.63;4.20;;;;;;;1.40;77.59;92415.06;5088894;28;20035;-50
2023/01/27 09:49:51;;;;;;;7.93;3.65;;;;;;;1.20;77.98;92408.13;5088611;28;20124;-50
2023/01/27 09:52:26;;;;;;;11.73;5.97;;;;;;;1.02;79.92;92410.84;5087219;28;20563;-50
2023/01/27 09:55:39;;;;;;;18.05;10.10;;;;;;;0.90;79.82;92415.69;5088707;28;20414;-50
2023/01/27 09:58:32;;;;;;;6.85;4.35;;;;;;;1.01;80.74;92415.56;5038987;28;20516;-51
2023/01/27 10:01:00;;;;;;;6.80;3.60;;;;;;;1.34;79.73;92412.38;5025770;28;20060;-50
2023/01/27 10:03:32;;;;;;;7.45;3.97;;;;;;;1.33;78.90;92404.75;5054127;28;20044;-50
2023/01/27 10:06:18;;;;;;;5.45;3.17;;;;;;;1.43;78.07;92409.31;5067102;28;20154;-50
2023/01/27 10:09:03;;;;;;;4.07;2.88;;;;;;;1.38;78.64;92404.69;5068481;28;20111;-51
2023/01/27 10:11:54;;;;;;;3.63;2.60;;;;;;;1.35;78.75;92397.56;5048266;28;20539;-50
2023/01/27 10:14:35;;;;;;;6.82;3.25;;;;;;;1.49;79.34;92404.53;5046612;28;20049;-50
2023/01/27 10:17:27;;;;;;;4.32;3.60;;;;;;;1.40;79.46;92398.75;5048348;28;20033;-50
2023/01/27 10:19:55;;;;;;;4.30;3.55;;;;;;;1.48;78.60;92389.47;5064812;28;20032;-50
2023/01/27 10:22:54;;;;;;;5.78;3.92;;;;;;;1.43;78.50;92393.00;5070544;28;20237;-51
2023/01/27 10:25:44;;;;;;;4.38;3.22;;;;;;;1.44;78.80;92383.59;5071697;28;20046;-51
2023/01/27 10:28:14;;;;;;;3.55;2.40;;;;;;;1.29;79.48;92385.28;5051519;28;20040;-50
2023/01/27 10:31:31;;;;;;;7.15;4.43;;;;;;;1.29;79.41;92374.41;5051611;28;20508;-50
2023/01/27 10:34:03;;;;;;;3.67;2.67;;;;;;;1.20;79.76;92380.22;5077256;28;20043;-51
2023/01/27 10:36:53;;;;;;;7.35;4.22;;;;;;;1.17;80.46;92381.97;5090913;28;20028;-50
2023/01/27 10:39:19;;;;;;;4.55;3.25;;;;;;;1.42;79.20;92374.47;5079811;28;20127;-51
2023/01/27 10:41:47;;;;;;;6.32;3.85;;;;;;;1.26;79.18;92373.44;5091850;28;20593;-50
2023/01/27 10:44:17;;;;;;;3.90;2.55;;;;;;;1.26;78.77;92362.56;5091605;28;20040;-51
2023/01/27 10:46:52;;;;;;;3.78;2.67;;;;;;;1.15;78.72;92362.00;5090409;28;20035;-51
2023/01/27 10:49:22;;;;;;;4.47;2.53;;;;;;;1.16;79.49;92356.06;5091866;28;20107;-50
2023/01/27 10:52:04;;;;;;;4.70;2.88;;;;;;;1.10;80.13;92355.41;5090169;28;20470;-50
2023/01/27 10:55:02;;;;;;;4.88;2.50;;;;;;;1.19;78.70;92348.84;5090095;28;20024;-50
2023/01/27 10:57:50;;;;;;;3.45;1.98;;;;;;;1.12;79.34;92352.91;5052413;28;20749;-51
2023/01/27 11:00:32;;;;;;;3.00;2.25;;;;;;;1.26;79.93;92350.97;5065103;28;20147;-50
2023/01/27 11:03:09;;;;;;;4.43;2.92;;;;;;;1.32;79.52;92351.63;5069815;28;20484;-49
2023/01/27 11:05:37;;;;;;;5.80;2.08;;;;;;;1.48;78.42;92348.69;5070020;28;20408;-51
2023/01/27 11:08:09;;;;;;;5.63;2.90;;;;;;;1.35;79.17;92340.47;5069441;28;20166;-52
2023/01/27 11:11:42;;;;;;;4.03;2.88;;;;;;;1.03;80.14;92326.06;5069619;28;20024;-50
2023/01/27 11:13:30;;;;;;;6.57;3.28;;;;;;;1.22;80.38;92339.66;5069520;28;20136;-49
2023/01/27 11:15:57;;;;;;;3.03;2.20;;;;;;;1.20;79.05;92340.19;5069100;28;20561;-49
2023/01/27 11:18:25;;;;;;;6.60;2.97;;;;;;;1.02;80.41;92343.63;5069816;28;20028;-49
2023/01/27 11:21:00;;;;;;;7.43;5.20;;;;;;;0.98;80.65;92350.59;5070886;28;20035;-50
2023/01/27 11:23:31;;;;;;;4.95;4.03;;;;;;;1.04;80.49;92343.13;5070616;28;20028;-49
2023/01/27 11:26:16;;;;;;;4.60;3.67;;;;;;;1.11;80.29;92345.25;5070610;28;20023;-50
2023/01/27 11:28:41;;;;;;;4.28;3.05;;;;;;;1.12;80.34;92342.03;5070394;28;20016;-50
2023/01/27 11:31:10;;;;;;;4.38;3.55;;;;;;;1.02;80.83;92338.19;5070141;28;20028;-51
2023/01/27 11:33:51;;;;;;;5.43;2.27;;;;;;;1.04;81.19;92334.97;5083226;28;20117;-49
2023/01/27 11:36:16;;;;;;;3.65;2.00;;;;;;;0.91;81.54;92332.91;5090344;28;20071;-50
2023/01/27 11:38:42;;;;;;;5.50;3.15;;;;;;;1.12;81.35;92331.16;5090993;28;20046;-50
2023/01/27 11:41:07;;;;;;;3.35;2.33;;;;;;;1.12;80.06;92325.72;5089406;28;20621;-50
2023/01/27 11:43:35;;;;;;;3.75;2.10;;;;;;;1.18;80.08;92326.38;5089328;28;20024;-50
2023/01/27 11:46:04;;;;;;;7.32;4.35;;;;;;;1.16;80.75;92331.59;5089051;28;20543;-52
2023/01/27 11:48:50;;;;;;;5.20;3.58;;;;;;;1.02;80.58;92332.75;5090343;28;20028;-49
2023/01/27 11:51:21;;;;;;;6.57;2.45;;;;;;;1.19;80.68;92333.25;5088839;28;20040;-50
2023/01/27 11:54:04;;;;;;;6.93;4.60;;;;;;;1.21;79.70;92330.75;5089306;28;20106;-49
2023/01/27 11:56:31;;;;;;;5.32;3.92;;;;;;;1.21;81.41;92333.47;5090168;28;20032;-49
2023/01/27 11:59:02;;;;;;;4.47;3.72;;;;;;;1.52;79.35;92311.03;5075092;28;20028;-49
2023/01/27 12:01:43;;;;;;;4.43;3.42;;;;;;;1.67;78.67;92326.16;5069921;28;20032;-51
2023/01/27 12:04:14;;;;;;;5.60;3.78;;;;;;;1.92;78.11;92330.19;5069848;28;20078;-50
2023/01/27 12:06:46;;;;;;;8.63;5.70;;;;;;;1.61;77.33;92323.50;5070059;28;20089;-51
2023/01/27 12:09:47;;;;;;;4.68;3.08;;;;;;;1.61;77.78;92320.03;5069581;28;20090;-49